Time;durP1;ratioP1;P1;durP2;ratioP2;P2;SDS_P1;SDS_P2;PMS_P1;PMS_P2;Temp;Humidity;BMP_temperature;BMP_pressure;BME280_temperature;BME280_humidity;BME280_pressure;Samples;Min_cycle;Max_cycle;Signal;HPM_P1;HPM_P2
2021/08/20 00:01:01;;;;;;;4.28;3.88;;;23.00;99.90;;;;;;5030304;28;20017;-68
2021/08/20 00:03:27;;;;;;;4.53;3.90;;;22.90;99.90;;;;;;5030155;28;20029;-68
2021/08/20 00:05:52;;;;;;;6.40;4.45;;;23.00;99.90;;;;;;5030624;28;20033;-67
2021/08/20 00:08:18;;;;;;;7.75;3.83;;;23.00;99.90;;;;;;5028778;28;20605;-69
2021/08/20 00:10:44;;;;;;;6.35;4.03;;;22.90;99.90;;;;;;5028999;28;20403;-69
2021/08/20 00:13:10;;;;;;;8.20;4.43;;;22.90;99.90;;;;;;5030180;28;20032;-68
2021/08/20 00:15:36;;;;;;;4.72;3.42;;;23.00;99.90;;;;;;5028654;28;20025;-69
2021/08/20 00:18:02;;;;;;;4.15;3.72;;;22.90;99.90;;;;;;5030086;28;20084;-68
2021/08/20 00:20:28;;;;;;;4.07;3.47;;;22.90;99.90;;;;;;5028590;28;20362;-69
2021/08/20 00:22:53;;;;;;;4.28;3.85;;;22.90;99.90;;;;;;5030145;28;20064;-69
2021/08/20 00:25:19;;;;;;;4.70;4.30;;;22.80;99.90;;;;;;5028646;28;20026;-69
2021/08/20 00:27:45;;;;;;;3.47;3.17;;;22.90;99.90;;;;;;5029717;28;20044;-69
2021/08/20 00:30:12;;;;;;;4.43;3.75;;;22.80;99.90;;;;;;5029836;28;20026;-69
2021/08/20 00:32:38;;;;;;;4.57;3.67;;;22.90;99.90;;;;;;5029738;28;20032;-69
2021/08/20 00:35:05;;;;;;;4.72;4.22;;;22.90;99.90;;;;;;5029832;28;20018;-70
2021/08/20 00:37:33;;;;;;;8.88;3.75;;;22.90;99.90;;;;;;5029741;28;20581;-69
2021/08/20 00:39:58;;;;;;;3.65;3.30;;;23.00;99.90;;;;;;5029935;28;20029;-69
2021/08/20 00:42:24;;;;;;;5.38;4.07;;;23.00;99.90;;;;;;5029862;28;20022;-70
2021/08/20 00:44:51;;;;;;;4.82;3.83;;;23.00;99.90;;;;;;5030779;28;20514;-70
2021/08/20 00:47:17;;;;;;;6.40;3.83;;;23.00;99.90;;;;;;5033387;28;20029;-70
2021/08/20 00:49:44;;;;;;;4.35;3.95;;;23.00;99.90;;;;;;5031880;28;20052;-68
2021/08/20 00:52:10;;;;;;;4.53;4.13;;;22.90;99.90;;;;;;5033187;28;20025;-70
2021/08/20 00:54:36;;;;;;;4.28;3.53;;;23.00;99.90;;;;;;5033319;28;20034;-70
2021/08/20 00:57:02;;;;;;;5.60;4.03;;;23.00;99.90;;;;;;5031770;28;20630;-69
2021/08/20 00:59:28;;;;;;;5.00;4.20;;;23.00;99.90;;;;;;5033245;28;20088;-70
2021/08/20 01:01:53;;;;;;;6.18;4.30;;;22.90;99.90;;;;;;5033146;28;20010;-70
2021/08/20 01:04:19;;;;;;;5.15;4.07;;;22.90;99.90;;;;;;5033118;28;20113;-70
2021/08/20 01:06:45;;;;;;;4.88;4.43;;;22.90;99.90;;;;;;5033118;28;20096;-70
2021/08/20 01:09:11;;;;;;;3.35;3.05;;;22.80;99.90;;;;;;5031434;28;20040;-70
2021/08/20 01:11:37;;;;;;;6.32;3.85;;;22.90;99.90;;;;;;5031847;28;20026;-70
2021/08/20 01:14:04;;;;;;;4.25;3.67;;;22.90;99.90;;;;;;5032867;28;20029;-70
2021/08/20 01:16:31;;;;;;;7.32;3.85;;;22.90;99.90;;;;;;5031389;28;20541;-70
2021/08/20 01:18:57;;;;;;;3.72;3.42;;;22.90;99.90;;;;;;5032736;28;20469;-70
2021/08/20 01:21:24;;;;;;;7.03;4.25;;;22.90;99.90;;;;;;5032841;28;20108;-70
2021/08/20 01:24:02;;;;;;;5.25;3.75;;;22.90;99.90;;;;;;5031371;28;20025;-71
2021/08/20 01:26:29;;;;;;;4.40;3.97;;;22.90;99.90;;;;;;5031695;28;20025;-69
2021/08/20 01:28:57;;;;;;;4.18;3.17;;;23.00;99.90;;;;;;5031106;28;20034;-69
2021/08/20 01:31:23;;;;;;;4.10;3.70;;;23.00;99.90;;;;;;5032779;28;20037;-70
2021/08/20 01:33:49;;;;;;;4.05;3.35;;;23.10;99.90;;;;;;5033106;28;20033;-70
2021/08/20 01:36:15;;;;;;;4.53;4.00;;;23.10;99.90;;;;;;5031432;28;20038;-68
2021/08/20 01:38:48;;;;;;;6.45;3.58;;;23.00;99.90;;;;;;5031314;28;20022;-68
2021/08/20 01:41:14;;;;;;;4.88;3.95;;;23.00;99.90;;;;;;5031588;28;20554;-69
2021/08/20 01:43:40;;;;;;;4.53;4.05;;;23.10;99.90;;;;;;5032543;28;20025;-69
2021/08/20 01:46:06;;;;;;;6.57;4.60;;;23.10;99.90;;;;;;5032612;28;20102;-69
2021/08/20 01:48:32;;;;;;;4.80;3.45;;;23.10;99.90;;;;;;5031062;28;20094;-68
2021/08/20 01:50:57;;;;;;;6.18;4.00;;;23.00;99.90;;;;;;5031293;28;20750;-69
2021/08/20 01:53:23;;;;;;;5.63;3.70;;;23.00;99.90;;;;;;5031256;28;20025;-70
2021/08/20 01:55:49;;;;;;;4.85;3.88;;;23.00;99.90;;;;;;5032313;28;20370;-71
2021/08/20 01:58:16;;;;;;;4.35;3.95;;;23.00;99.90;;;;;;5030963;28;20472;-71
2021/08/20 02:00:42;;;;;;;6.75;4.55;;;23.10;99.90;;;;;;5032587;28;20119;-71
2021/08/20 02:03:09;;;;;;;3.95;3.13;;;23.00;99.90;;;;;;5032140;28;20034;-69
2021/08/20 02:05:35;;;;;;;5.80;3.50;;;22.90;99.90;;;;;;5032102;28;20033;-70
2021/08/20 02:08:01;;;;;;;4.03;3.65;;;22.90;99.90;;;;;;5030659;28;20029;-70
2021/08/20 02:10:27;;;;;;;3.67;3.38;;;22.90;99.90;;;;;;5030770;28;20028;-69
2021/08/20 02:12:53;;;;;;;3.17;2.80;;;22.80;99.90;;;;;;5031868;28;20429;-69
2021/08/20 02:15:19;;;;;;;4.65;4.07;;;22.80;99.90;;;;;;5030986;28;20449;-68
2021/08/20 02:17:46;;;;;;;5.43;4.20;;;22.70;99.90;;;;;;5030106;28;20077;-71
2021/08/20 02:20:12;;;;;;;4.20;3.80;;;22.80;99.90;;;;;;5031829;28;20044;-68
2021/08/20 02:22:38;;;;;;;7.47;3.97;;;22.70;99.90;;;;;;5030465;28;20029;-69
2021/08/20 02:25:04;;;;;;;7.40;3.97;;;22.70;99.90;;;;;;5030408;28;20022;-69
2021/08/20 02:27:29;;;;;;;5.97;3.65;;;22.60;99.90;;;;;;5030259;28;20021;-68
2021/08/20 02:29:55;;;;;;;4.28;3.88;;;22.60;99.90;;;;;;5030292;28;20036;-69
2021/08/20 02:32:21;;;;;;;5.20;3.97;;;22.60;99.90;;;;;;5031220;28;20029;-70
2021/08/20 02:34:47;;;;;;;5.10;3.85;;;22.60;99.90;;;;;;5030223;28;20414;-69
2021/08/20 02:37:13;;;;;;;6.40;3.72;;;22.60;99.90;;;;;;5030003;28;20022;-69
2021/08/20 02:39:39;;;;;;;4.22;3.83;;;22.60;99.90;;;;;;5031197;28;20033;-69
2021/08/20 02:42:05;;;;;;;4.82;4.03;;;22.60;99.90;;;;;;5031630;28;20034;-70
2021/08/20 02:44:31;;;;;;;4.60;3.53;;;22.50;99.90;;;;;;5031442;28;20316;-70
2021/08/20 02:46:58;;;;;;;4.43;3.88;;;22.60;99.90;;;;;;5030333;28;20037;-71
2021/08/20 02:49:24;;;;;;;6.07;3.60;;;22.50;99.90;;;;;;5034284;28;20033;-70
2021/08/20 02:51:50;;;;;;;3.55;3.25;;;22.60;99.90;;;;;;5036246;28;20475;-70
2021/08/20 02:54:16;;;;;;;4.60;3.38;;;22.60;99.90;;;;;;5035625;28;20383;-69
2021/08/20 02:56:42;;;;;;;4.50;3.63;;;22.60;99.90;;;;;;5031211;28;20488;-69
2021/08/20 02:59:07;;;;;;;4.70;4.00;;;22.70;99.90;;;;;;5030867;28;20689;-68
2021/08/20 03:01:33;;;;;;;3.58;3.17;;;22.70;99.90;;;;;;5029917;28;20021;-69
2021/08/20 03:03:59;;;;;;;7.70;4.22;;;22.70;99.90;;;;;;5031391;28;20033;-70
2021/08/20 03:06:24;;;;;;;3.83;3.53;;;22.60;99.90;;;;;;5030846;28;20025;-69
2021/08/20 03:08:50;;;;;;;4.22;3.65;;;22.60;99.90;;;;;;5030989;28;20033;-69
2021/08/20 03:11:17;;;;;;;4.95;4.05;;;22.60;99.90;;;;;;5031476;28;20022;-69
2021/08/20 03:13:42;;;;;;;3.60;3.20;;;22.70;99.90;;;;;;5030772;28;20029;-69
2021/08/20 03:16:08;;;;;;;4.75;4.35;;;22.70;99.90;;;;;;5030675;28;20044;-69
2021/08/20 03:18:34;;;;;;;4.30;3.75;;;22.70;99.90;;;;;;5030557;28;20467;-70
2021/08/20 03:21:00;;;;;;;9.20;4.43;;;22.70;99.90;;;;;;5029508;28;20037;-70
2021/08/20 03:23:25;;;;;;;5.03;3.55;;;22.70;99.90;;;;;;5029340;28;20025;-69
2021/08/20 03:25:51;;;;;;;5.10;4.03;;;22.60;99.90;;;;;;5030725;28;20031;-69
2021/08/20 03:28:17;;;;;;;5.07;3.45;;;22.60;99.90;;;;;;5030583;28;20030;-68
2021/08/20 03:30:43;;;;;;;4.25;3.88;;;22.60;99.90;;;;;;5030579;28;20021;-69
2021/08/20 03:33:08;;;;;;;4.28;3.88;;;22.60;99.90;;;;;;5030460;28;20029;-69
2021/08/20 03:35:34;;;;;;;6.95;3.70;;;22.60;99.90;;;;;;5030624;28;20017;-69
2021/08/20 03:38:00;;;;;;;7.57;3.42;;;22.50;99.90;;;;;;5029268;28;20022;-69
2021/08/20 03:40:26;;;;;;;6.28;3.38;;;22.50;99.90;;;;;;5030544;28;20024;-69
2021/08/20 03:42:53;;;;;;;9.30;3.60;;;22.50;99.90;;;;;;5029243;28;20096;-69
2021/08/20 03:45:19;;;;;;;6.60;3.55;;;22.60;99.90;;;;;;5029210;28;20333;-69
2021/08/20 03:47:45;;;;;;;7.95;3.20;;;22.60;99.90;;;;;;5028801;28;20042;-69
2021/08/20 03:50:11;;;;;;;4.60;4.10;;;22.70;99.90;;;;;;5030233;28;20391;-69
2021/08/20 03:52:37;;;;;;;4.72;3.95;;;22.60;99.90;;;;;;5029149;28;20164;-69
2021/08/20 03:55:03;;;;;;;4.95;3.63;;;22.60;99.90;;;;;;5031753;28;20388;-69
2021/08/20 03:57:29;;;;;;;3.83;3.47;;;22.60;99.90;;;;;;5032479;28;20492;-69
2021/08/20 03:59:56;;;;;;;3.60;3.30;;;22.60;99.90;;;;;;5031072;28;20035;-69
2021/08/20 04:02:22;;;;;;;4.35;3.63;;;22.60;99.90;;;;;;5028677;28;20044;-69
2021/08/20 04:04:48;;;;;;;4.57;3.47;;;22.50;99.90;;;;;;5028595;28;20037;-69
2021/08/20 04:07:19;;;;;;;4.93;3.95;;;22.50;99.90;;;;;;5030424;28;20114;-69
2021/08/20 04:09:45;;;;;;;4.07;3.67;;;22.40;99.90;;;;;;5030559;28;20054;-69
2021/08/20 04:12:10;;;;;;;4.57;3.97;;;22.40;99.90;;;;;;5030469;28;20115;-69
2021/08/20 04:14:36;;;;;;;3.65;2.92;;;22.50;99.90;;;;;;5030029;28;20025;-68
2021/08/20 04:17:02;;;;;;;3.53;2.90;;;22.40;99.90;;;;;;5028523;28;20113;-68
2021/08/20 04:19:28;;;;;;;5.13;4.35;;;22.40;99.90;;;;;;5033352;28;20025;-69
2021/08/20 04:21:54;;;;;;;3.78;3.47;;;22.40;99.90;;;;;;5032344;28;20074;-69
2021/08/20 04:24:19;;;;;;;8.40;3.60;;;22.40;99.90;;;;;;5033802;28;20028;-70
2021/08/20 04:26:45;;;;;;;4.30;3.90;;;22.40;99.90;;;;;;5033857;28;20025;-69
2021/08/20 04:29:12;;;;;;;4.88;4.13;;;22.40;99.90;;;;;;5032332;28;20018;-69
2021/08/20 04:31:38;;;;;;;6.97;4.28;;;22.40;99.90;;;;;;5032690;28;20083;-71
2021/08/20 04:34:04;;;;;;;5.32;3.88;;;22.40;99.90;;;;;;5033933;28;20495;-69
2021/08/20 04:36:30;;;;;;;5.55;3.58;;;22.30;99.90;;;;;;5032656;28;20029;-69
2021/08/20 04:38:55;;;;;;;7.32;3.65;;;22.40;99.90;;;;;;5032302;28;20018;-71
2021/08/20 04:41:21;;;;;;;5.18;3.85;;;22.40;99.90;;;;;;5033930;28;20029;-68
2021/08/20 04:43:47;;;;;;;4.82;4.10;;;22.40;99.90;;;;;;5033723;28;20017;-71
2021/08/20 04:46:12;;;;;;;4.45;4.05;;;22.40;99.90;;;;;;5033610;28;20029;-69
2021/08/20 04:48:38;;;;;;;7.18;6.47;;;22.50;99.90;;;;;;5033542;28;20037;-69
2021/08/20 04:51:04;;;;;;;5.53;3.50;;;22.50;99.90;;;;;;5031968;28;20421;-69
2021/08/20 04:53:30;;;;;;;8.30;4.78;;;22.70;99.90;;;;;;5033716;28;20030;-70
2021/08/20 04:55:57;;;;;;;5.55;3.40;;;22.70;99.90;;;;;;5031988;28;20072;-69
2021/08/20 04:58:27;;;;;;;7.38;4.13;;;22.70;99.90;;;;;;5031787;28;20026;-69
2021/08/20 05:00:53;;;;;;;5.88;4.22;;;22.70;99.90;;;;;;5033758;28;20021;-69
2021/08/20 05:03:20;;;;;;;7.45;4.63;;;22.70;99.90;;;;;;5033905;28;20048;-68
2021/08/20 05:05:46;;;;;;;12.80;3.28;;;22.80;99.90;;;;;;5034088;28;20044;-70
2021/08/20 05:08:12;;;;;;;4.45;4.05;;;22.80;99.90;;;;;;5031977;28;20056;-70
2021/08/20 05:10:38;;;;;;;8.70;3.88;;;22.90;99.90;;;;;;5032007;28;20646;-69
2021/08/20 05:13:06;;;;;;;8.98;3.78;;;22.90;99.90;;;;;;5031673;28;20029;-69
2021/08/20 05:15:32;;;;;;;4.88;3.78;;;22.90;99.90;;;;;;5031685;28;20112;-69
2021/08/20 05:17:58;;;;;;;5.85;4.68;;;22.90;99.90;;;;;;5033103;28;20030;-68
2021/08/20 05:20:24;;;;;;;6.25;3.65;;;23.00;99.90;;;;;;5032970;28;20025;-68
2021/08/20 05:22:52;;;;;;;4.22;3.85;;;23.00;99.90;;;;;;5033012;28;20084;-71
2021/08/20 05:25:19;;;;;;;7.25;4.22;;;23.10;99.90;;;;;;5032722;28;20029;-68
2021/08/20 05:27:45;;;;;;;12.43;4.38;;;23.20;99.90;;;;;;5031240;28;20021;-69
2021/08/20 05:30:12;;;;;;;6.88;4.60;;;23.30;99.90;;;;;;5030650;28;20052;-69
2021/08/20 05:32:38;;;;;;;10.40;8.05;;;23.40;99.90;;;;;;5030901;28;20041;-69
2021/08/20 05:35:06;;;;;;;8.88;5.30;;;23.60;99.90;;;;;;5032525;28;20332;-69
2021/08/20 05:37:31;;;;;;;9.45;5.13;;;23.70;99.90;;;;;;5030688;28;20029;-69
2021/08/20 05:39:57;;;;;;;7.65;4.40;;;23.80;99.90;;;;;;5032634;28;20047;-69
2021/08/20 05:42:23;;;;;;;3.75;3.33;;;23.90;99.90;;;;;;5032524;28;20025;-69
2021/08/20 05:44:49;;;;;;;8.43;4.20;;;24.00;99.90;;;;;;5031099;28;20447;-68
2021/08/20 05:47:15;;;;;;;4.05;3.63;;;24.00;99.90;;;;;;5031160;28;20116;-68
2021/08/20 05:49:41;;;;;;;10.18;3.50;;;24.00;99.90;;;;;;5032334;28;20109;-71
2021/08/20 05:52:07;;;;;;;6.43;5.25;;;24.20;99.90;;;;;;5031024;28;20025;-69
2021/08/20 05:54:33;;;;;;;7.25;5.47;;;24.30;99.90;;;;;;5032133;28;20018;-69
2021/08/20 05:57:02;;;;;;;9.82;3.92;;;24.30;99.90;;;;;;5032203;28;20438;-70
2021/08/20 05:59:27;;;;;;;6.22;4.03;;;24.30;99.90;;;;;;5030716;28;20017;-68
2021/08/20 06:01:53;;;;;;;5.40;3.40;;;24.40;99.90;;;;;;5032067;28;20021;-68
2021/08/20 06:04:19;;;;;;;4.82;3.35;;;24.40;99.90;;;;;;5032040;28;20100;-69
2021/08/20 06:06:45;;;;;;;5.18;3.63;;;24.60;99.90;;;;;;5031880;28;20025;-70
2021/08/20 06:09:10;;;;;;;8.95;5.07;;;24.70;99.90;;;;;;5031152;28;20029;-69
2021/08/20 06:11:36;;;;;;;4.38;3.97;;;24.70;99.90;;;;;;5032457;28;20029;-69
2021/08/20 06:14:02;;;;;;;3.30;2.92;;;24.80;99.90;;;;;;5030679;28;20541;-69
2021/08/20 06:16:28;;;;;;;5.38;3.63;;;24.90;99.90;;;;;;5031882;28;20040;-70
2021/08/20 06:18:53;;;;;;;4.65;3.55;;;25.00;99.90;;;;;;5032040;28;20222;-69
2021/08/20 06:21:19;;;;;;;9.30;6.30;;;25.10;99.90;;;;;;5031878;28;20033;-68
2021/08/20 06:23:45;;;;;;;6.18;4.80;;;25.20;99.90;;;;;;5032384;28;20025;-71
2021/08/20 06:26:11;;;;;;;4.03;2.88;;;25.30;99.90;;;;;;5032759;28;20036;-69
2021/08/20 06:28:37;;;;;;;7.88;3.65;;;25.30;99.90;;;;;;5031700;28;20025;-69
2021/08/20 06:31:04;;;;;;;4.40;3.47;;;25.30;99.90;;;;;;5030910;28;20038;-69
2021/08/20 06:33:31;;;;;;;5.65;3.92;;;25.30;99.90;;;;;;5032199;28;20021;-70
2021/08/20 06:35:57;;;;;;;6.20;3.22;;;25.30;99.90;;;;;;5030425;28;20018;-71
2021/08/20 06:38:22;;;;;;;5.05;3.30;;;25.40;99.90;;;;;;5029936;28;20163;-71
2021/08/20 06:40:48;;;;;;;6.28;3.85;;;25.40;99.90;;;;;;5029437;28;20030;-70
2021/08/20 06:43:14;;;;;;;4.10;3.63;;;25.40;99.90;;;;;;5031015;28;20104;-68
2021/08/20 06:45:40;;;;;;;6.50;5.00;;;25.50;99.90;;;;;;5030469;28;20549;-71
2021/08/20 06:48:06;;;;;;;6.72;3.63;;;25.50;99.90;;;;;;5032671;28;20092;-69
2021/08/20 06:50:32;;;;;;;7.15;3.58;;;25.60;99.90;;;;;;5036191;28;20056;-69
2021/08/20 06:52:57;;;;;;;5.47;3.63;;;25.60;99.90;;;;;;5035308;28;20082;-69
2021/08/20 06:55:23;;;;;;;5.97;3.67;;;25.70;99.90;;;;;;5030121;28;20036;-69
2021/08/20 06:57:49;;;;;;;10.63;4.05;;;25.70;99.90;;;;;;5031060;28;20437;-69
2021/08/20 07:00:15;;;;;;;4.32;3.92;;;25.80;99.90;;;;;;5029484;28;20486;-70
2021/08/20 07:02:43;;;;;;;7.00;6.28;;;25.70;99.90;;;;;;5029248;28;20025;-69
2021/08/20 07:05:09;;;;;;;12.18;5.45;;;25.80;99.90;;;;;;5029306;28;20052;-69
2021/08/20 07:07:35;;;;;;;9.00;3.78;;;25.80;99.90;;;;;;5030638;28;20111;-69
2021/08/20 07:10:01;;;;;;;7.18;3.92;;;25.90;99.90;;;;;;5030793;28;20077;-69
2021/08/20 07:12:27;;;;;;;5.65;3.33;;;25.90;99.90;;;;;;5029315;28;20026;-68
2021/08/20 07:14:52;;;;;;;4.13;3.30;;;25.90;99.90;;;;;;5030739;28;20025;-69
2021/08/20 07:17:18;;;;;;;5.55;3.58;;;25.90;99.90;;;;;;5029681;28;20025;-69
2021/08/20 07:19:44;;;;;;;4.60;3.30;;;25.80;99.90;;;;;;5030934;28;20037;-69
2021/08/20 07:22:10;;;;;;;3.90;3.25;;;25.80;99.90;;;;;;5030976;28;20034;-69
2021/08/20 07:24:36;;;;;;;8.90;3.35;;;25.80;99.90;;;;;;5029412;28;20057;-69
2021/08/20 07:27:02;;;;;;;8.32;3.78;;;25.90;99.90;;;;;;5030854;28;20018;-69
2021/08/20 07:29:28;;;;;;;4.15;3.65;;;26.00;99.90;;;;;;5029205;28;20026;-68
2021/08/20 07:31:54;;;;;;;5.43;3.78;;;26.10;99.90;;;;;;5029142;28;20021;-69
2021/08/20 07:34:19;;;;;;;4.55;4.10;;;26.20;99.90;;;;;;5030775;28;20036;-69
2021/08/20 07:36:45;;;;;;;4.60;3.45;;;26.30;99.90;;;;;;5030738;28;20483;-71
2021/08/20 07:39:11;;;;;;;9.50;5.97;;;26.50;99.90;;;;;;5030492;28;20021;-69
2021/08/20 07:41:37;;;;;;;3.05;2.65;;;26.60;99.90;;;;;;5029688;28;20108;-68
2021/08/20 07:44:02;;;;;;;3.65;3.35;;;26.60;99.90;;;;;;5030440;28;20097;-68
2021/08/20 07:46:28;;;;;;;5.03;3.72;;;26.70;99.90;;;;;;5030541;28;20036;-69
2021/08/20 07:48:54;;;;;;;5.78;4.05;;;26.70;99.90;;;;;;5029244;28;20026;-69
2021/08/20 07:51:20;;;;;;;3.40;3.10;;;26.70;99.90;;;;;;5029137;28;20025;-69
2021/08/20 07:53:45;;;;;;;5.05;4.50;;;26.80;99.90;;;;;;5032695;28;20439;-70
2021/08/20 07:56:11;;;;;;;7.88;7.10;;;26.90;99.90;;;;;;5034768;28;20041;-68
2021/08/20 07:58:37;;;;;;;5.00;4.25;;;26.90;99.90;;;;;;5034231;28;20488;-69
2021/08/20 08:01:03;;;;;;;4.57;4.10;;;26.90;99.90;;;;;;5034270;28;20032;-70
2021/08/20 08:03:29;;;;;;;4.35;3.90;;;26.90;99.90;;;;;;5032680;28;20475;-70
2021/08/20 08:05:55;;;;;;;3.72;3.42;;;26.90;99.90;;;;;;5033846;28;20021;-70
2021/08/20 08:08:21;;;;;;;4.35;3.30;;;27.00;99.90;;;;;;5034427;28;20035;-70
2021/08/20 08:10:47;;;;;;;3.17;2.85;;;27.10;99.90;;;;;;5038544;28;20026;-70
2021/08/20 08:13:12;;;;;;;9.63;3.35;;;27.10;99.90;;;;;;5037110;28;20036;-72
2021/08/20 08:15:38;;;;;;;5.57;4.40;;;27.10;99.90;;;;;;5036119;28;20471;-69
2021/08/20 08:18:04;;;;;;;3.65;3.33;;;27.10;99.90;;;;;;5035087;28;20550;-69
2021/08/20 08:20:30;;;;;;;8.85;4.90;;;27.10;99.80;;;;;;5037361;28;20034;-70
2021/08/20 08:22:56;;;;;;;6.65;4.28;;;27.20;99.80;;;;;;5034883;28;20029;-70
2021/08/20 08:25:22;;;;;;;6.68;3.83;;;27.20;99.80;;;;;;5036045;28;20052;-70
2021/08/20 08:27:56;;;;;;;4.28;3.88;;;27.20;99.90;;;;;;5035183;28;20029;-72
2021/08/20 08:30:24;;;;;;;4.97;3.33;;;27.20;99.90;;;;;;5037497;28;20031;-71
2021/08/20 08:32:50;;;;;;;5.90;4.43;;;27.20;99.90;;;;;;5036315;28;20025;-70
2021/08/20 08:35:16;;;;;;;7.20;4.13;;;27.30;99.80;;;;;;5037009;28;20024;-71
2021/08/20 08:37:42;;;;;;;4.25;3.90;;;27.40;99.60;;;;;;5035451;28;20053;-69
2021/08/20 08:40:08;;;;;;;6.28;4.03;;;27.50;99.50;;;;;;5034845;28;20029;-69
2021/08/20 08:42:35;;;;;;;3.63;3.33;;;27.60;99.20;;;;;;5035848;28;20033;-69
2021/08/20 08:45:02;;;;;;;4.82;3.38;;;27.60;99.30;;;;;;5035100;28;20033;-70
2021/08/20 08:47:33;;;;;;;6.95;3.22;;;27.50;99.60;;;;;;5033983;28;20030;-69
2021/08/20 08:50:01;;;;;;;4.80;3.35;;;27.50;99.30;;;;;;5034343;28;20124;-70
2021/08/20 08:52:27;;;;;;;3.55;3.28;;;27.40;99.10;;;;;;5031970;28;20079;-70
2021/08/20 08:54:53;;;;;;;8.40;3.65;;;27.50;99.30;;;;;;5031938;28;20022;-70
2021/08/20 08:57:18;;;;;;;6.68;2.97;;;27.40;99.90;;;;;;5031910;28;20030;-70
2021/08/20 08:59:44;;;;;;;6.75;3.47;;;27.40;99.90;;;;;;5033239;28;20025;-70
2021/08/20 09:02:23;;;;;;;5.63;3.88;;;27.50;99.90;;;;;;5031951;28;20022;-70
2021/08/20 09:05:00;;;;;;;4.00;3.60;;;27.60;99.90;;;;;;5032327;28;20071;-70
2021/08/20 09:07:29;;;;;;;3.65;2.97;;;27.70;99.90;;;;;;5033559;28;20025;-70
2021/08/20 09:10:13;;;;;;;8.75;3.50;;;27.70;99.90;;;;;;5033565;28;20071;-70
2021/08/20 09:12:52;;;;;;;4.07;3.55;;;27.50;99.90;;;;;;5032174;28;20608;-71
2021/08/20 09:15:20;;;;;;;8.98;4.13;;;27.50;99.90;;;;;;5031630;28;20545;-69
2021/08/20 09:17:48;;;;;;;6.35;3.92;;;27.50;99.90;;;;;;5031035;28;20464;-69
2021/08/20 09:20:20;;;;;;;4.10;3.45;;;27.50;99.90;;;;;;5033241;28;20037;-69
2021/08/20 09:22:47;;;;;;;7.05;4.63;;;27.40;99.90;;;;;;5031625;28;20059;-68
2021/08/20 09:25:28;;;;;;;6.45;3.80;;;27.30;99.90;;;;;;5031569;28;20088;-71
2021/08/20 09:28:17;;;;;;;4.00;3.60;;;27.10;99.90;;;;;;5031055;28;20116;-68
2021/08/20 09:31:04;;;;;;;5.10;4.28;;;27.10;99.90;;;;;;5031383;28;20035;-69
2021/08/20 09:33:49;;;;;;;5.50;3.83;;;27.10;99.90;;;;;;5031776;28;20041;-69
2021/08/20 09:36:18;;;;;;;4.10;3.70;;;27.20;99.90;;;;;;5030984;28;20466;-68
2021/08/20 09:38:53;;;;;;;5.00;3.60;;;27.20;99.90;;;;;;5032515;28;20026;-68
2021/08/20 09:41:36;;;;;;;6.82;3.72;;;27.30;99.90;;;;;;5032372;28;20105;-70
2021/08/20 09:44:06;;;;;;;6.53;3.88;;;27.20;99.90;;;;;;5032598;28;20033;-70
2021/08/20 09:46:43;;;;;;;5.40;3.97;;;27.20;99.90;;;;;;5031646;28;20052;-69
2021/08/20 09:49:09;;;;;;;3.92;3.47;;;27.30;99.90;;;;;;5033746;28;20048;-71
2021/08/20 09:51:47;;;;;;;6.13;4.15;;;27.30;99.90;;;;;;5033191;28;20128;-70
2021/08/20 09:54:26;;;;;;;5.05;3.70;;;27.30;99.90;;;;;;5033003;28;20044;-69
2021/08/20 09:56:52;;;;;;;4.30;3.53;;;27.30;99.90;;;;;;5033075;28;20029;-69
2021/08/20 09:59:18;;;;;;;5.65;4.32;;;27.30;99.90;;;;;;5030696;28;20471;-70
2021/08/20 10:01:46;;;;;;;4.78;3.35;;;27.30;99.90;;;;;;5031108;28;20033;-69
2021/08/20 10:04:17;;;;;;;4.82;4.07;;;27.30;99.90;;;;;;5030629;28;20037;-68
2021/08/20 10:06:47;;;;;;;4.55;4.15;;;27.20;99.90;;;;;;5030865;28;20475;-70
2021/08/20 10:09:15;;;;;;;5.43;4.45;;;27.10;99.90;;;;;;5030390;28;20507;-70
2021/08/20 10:11:54;;;;;;;4.45;4.05;;;27.20;99.90;;;;;;5031605;28;20112;-70
2021/08/20 10:14:24;;;;;;;5.43;4.22;;;27.20;99.90;;;;;;5031860;28;20346;-69
2021/08/20 10:16:50;;;;;;;4.95;3.92;;;27.30;99.90;;;;;;5030049;28;20018;-70
2021/08/20 10:19:16;;;;;;;4.78;3.25;;;27.60;99.90;;;;;;5031659;28;20268;-70
2021/08/20 10:21:44;;;;;;;6.78;3.25;;;27.70;99.90;;;;;;5030506;28;20734;-72
2021/08/20 10:24:11;;;;;;;3.72;3.42;;;27.60;99.90;;;;;;5030001;28;20087;-68
2021/08/20 10:26:44;;;;;;;9.43;4.07;;;27.50;99.90;;;;;;5030380;28;20032;-70
2021/08/20 10:29:10;;;;;;;4.93;3.17;;;27.30;99.90;;;;;;5029972;28;20026;-68
2021/08/20 10:31:37;;;;;;;3.97;3.58;;;27.40;99.90;;;;;;5030815;28;20026;-68
2021/08/20 10:34:31;;;;;;;5.68;3.50;;;27.30;99.90;;;;;;5029892;28;20029;-69
2021/08/20 10:37:23;;;;;;;5.10;3.65;;;27.30;99.90;;;;;;5031763;28;20049;-68
2021/08/20 10:39:51;;;;;;;9.50;3.92;;;27.30;99.90;;;;;;5030357;28;20021;-70
2021/08/20 10:42:34;;;;;;;6.85;3.88;;;27.30;99.90;;;;;;5031488;28;20487;-70
2021/08/20 10:45:08;;;;;;;11.05;3.63;;;27.40;99.90;;;;;;5033119;28;20109;-71
2021/08/20 10:47:34;;;;;;;4.07;3.50;;;27.70;99.90;;;;;;5035241;28;20022;-69
2021/08/20 10:50:06;;;;;;;5.95;4.30;;;27.70;99.90;;;;;;5034792;28;20029;-69
2021/08/20 10:52:34;;;;;;;7.07;3.78;;;27.70;99.90;;;;;;5031681;28;20545;-70
2021/08/20 10:55:00;;;;;;;7.32;3.65;;;27.70;99.90;;;;;;5029721;28;20033;-69
2021/08/20 10:57:35;;;;;;;6.65;3.50;;;27.90;99.90;;;;;;5029885;28;20022;-71
2021/08/20 11:00:03;;;;;;;6.00;3.88;;;27.90;99.90;;;;;;5031313;28;20027;-69
2021/08/20 11:02:29;;;;;;;3.25;2.97;;;27.80;99.90;;;;;;5029542;28;20095;-69
2021/08/20 11:05:05;;;;;;;3.80;3.45;;;28.00;99.90;;;;;;5029793;28;20484;-69
2021/08/20 11:07:42;;;;;;;6.88;3.88;;;28.10;99.90;;;;;;5029140;28;20477;-70
2021/08/20 11:10:08;;;;;;;6.40;3.47;;;28.20;99.90;;;;;;5029396;28;20108;-68
2021/08/20 11:12:55;;;;;;;5.75;3.78;;;28.30;99.90;;;;;;5031015;28;20032;-69
2021/08/20 11:15:41;;;;;;;3.55;3.15;;;28.30;99.90;;;;;;5029438;28;20196;-70
2021/08/20 11:18:07;;;;;;;5.70;3.85;;;28.50;99.90;;;;;;5030581;28;20484;-71
2021/08/20 11:20:38;;;;;;;5.40;2.75;;;28.60;99.90;;;;;;5031050;28;20034;-71
2021/08/20 11:23:11;;;;;;;8.75;3.58;;;28.80;99.90;;;;;;5031239;28;20096;-69
2021/08/20 11:25:44;;;;;;;4.28;3.58;;;28.60;99.40;;;;;;5031153;28;20396;-70
2021/08/20 11:28:39;;;;;;;6.07;2.95;;;28.60;99.50;;;;;;5030446;28;20021;-70
2021/08/20 11:31:09;;;;;;;3.47;3.00;;;28.40;98.60;;;;;;5031013;28;20025;-70
2021/08/20 11:33:41;;;;;;;5.30;3.58;;;28.50;98.60;;;;;;5031716;28;20047;-70
2021/08/20 11:36:13;;;;;;;3.85;3.45;;;28.50;98.30;;;;;;5031204;28;20493;-70
2021/08/20 11:38:44;;;;;;;;;;;28.70;98.30;;;;;;5031866;28;20108;-73
2021/08/20 11:41:25;;;;;;;6.57;3.97;;;28.90;98.60;;;;;;5030259;28;19905;-70
2021/08/20 11:44:02;;;;;;;3.92;3.40;;;28.80;99.20;;;;;;5029532;28;20603;-72
2021/08/20 11:46:30;;;;;;;3.53;3.22;;;29.00;99.30;;;;;;5029228;28;20034;-70
2021/08/20 11:48:58;;;;;;;7.20;3.55;;;29.10;99.40;;;;;;5028738;28;20025;-69
2021/08/20 11:51:32;;;;;;;3.50;3.20;;;29.10;99.90;;;;;;5029226;28;20068;-70
2021/08/20 11:54:04;;;;;;;4.05;3.50;;;29.00;99.90;;;;;;5030100;28;20095;-69
2021/08/20 11:56:29;;;;;;;6.78;3.97;;;28.80;99.90;;;;;;5030466;28;20044;-72
2021/08/20 11:58:56;;;;;;;3.53;3.20;;;28.90;99.90;;;;;;5030479;28;20220;-73
2021/08/20 12:01:31;;;;;;;4.28;3.88;;;28.80;99.90;;;;;;5029211;28;20083;-69
2021/08/20 12:03:59;;;;;;;7.53;4.07;;;28.80;99.90;;;;;;5029356;28;20025;-70
2021/08/20 12:06:26;;;;;;;4.13;3.67;;;28.70;99.90;;;;;;5030608;28;20033;-69
2021/08/20 12:08:56;;;;;;;9.07;3.95;;;28.70;99.90;;;;;;5030686;28;20032;-71
2021/08/20 12:11:23;;;;;;;8.00;3.67;;;28.80;99.90;;;;;;5030904;28;20022;-70
2021/08/20 12:13:55;;;;;;;7.35;3.63;;;28.80;99.90;;;;;;5029359;28;20066;-70
2021/08/20 12:16:40;;;;;;;;;;;28.80;99.90;;;;;;5029994;28;20025;-69
2021/08/20 12:19:26;;;;;;;8.52;4.05;;;28.60;99.90;;;;;;5029356;28;19905;-72
2021/08/20 12:22:14;;;;;;;5.65;4.28;;;28.60;99.90;;;;;;5030589;28;20033;-69
2021/08/20 12:24:44;;;;;;;11.20;4.30;;;28.70;99.90;;;;;;5029014;28;20148;-71
2021/08/20 12:27:21;;;;;;;4.97;3.70;;;28.70;99.90;;;;;;5030273;28;20026;-71
2021/08/20 12:29:59;;;;;;;13.68;4.18;;;28.80;99.90;;;;;;5028700;28;20030;-71
2021/08/20 12:32:30;;;;;;;5.05;4.07;;;28.90;99.90;;;;;;5029912;28;20037;-69
2021/08/20 12:35:01;;;;;;;5.75;3.60;;;28.70;99.90;;;;;;5030178;28;20034;-69
2021/08/20 12:37:28;;;;;;;5.03;4.05;;;28.70;99.90;;;;;;5029746;28;20040;-67
2021/08/20 12:40:12;;;;;;;6.30;3.72;;;28.70;99.90;;;;;;5031268;28;20483;-70
2021/08/20 12:42:51;;;;;;;6.20;4.18;;;28.60;99.90;;;;;;5033373;28;20104;-72
2021/08/20 12:45:18;;;;;;;4.95;3.85;;;28.50;99.90;;;;;;5033501;28;20032;-71
2021/08/20 12:47:46;;;;;;;6.07;3.60;;;28.60;99.90;;;;;;5033190;28;20025;-70
2021/08/20 12:50:14;;;;;;;6.93;4.15;;;28.40;99.90;;;;;;5034222;28;20534;-70
2021/08/20 12:52:42;;;;;;;5.20;4.22;;;28.50;99.90;;;;;;5033516;28;20025;-69